createdAt,value
2022-11-13T00:00:02.366Z,37.30
2022-11-13T00:00:12.366Z,36.90
2022-11-13T00:00:22.496Z,37.00
2022-11-13T00:00:32.624Z,37.00
2022-11-13T00:00:42.635Z,37.80
2022-11-13T00:00:52.635Z,38.60
2022-11-13T00:01:02.767Z,38.60
2022-11-13T00:01:12.765Z,37.60
2022-11-13T00:01:22.915Z,36.10
2022-11-13T00:01:33.029Z,37.40
2022-11-13T00:01:43.039Z,39.90
2022-11-13T00:01:53.188Z,40.10
2022-11-13T00:02:03.178Z,40.50
2022-11-13T00:02:13.205Z,39.00
2022-11-13T00:02:23.201Z,39.60
2022-11-13T00:02:33.420Z,38.80
2022-11-13T00:02:43.503Z,38.20
2022-11-13T00:02:53.511Z,36.70
2022-11-13T00:03:03.527Z,37.60
2022-11-13T00:03:13.657Z,37.40
2022-11-13T00:03:23.854Z,39.70
2022-11-13T00:03:33.816Z,41.30
2022-11-13T00:03:43.967Z,42.80
2022-11-13T00:03:53.932Z,40.90
2022-11-13T00:04:04.094Z,39.20
2022-11-13T00:04:14.076Z,38.10
2022-11-13T00:04:24.133Z,38.50
2022-11-13T00:04:34.178Z,38.40
2022-11-13T00:04:44.209Z,37.80
2022-11-13T00:04:54.265Z,40.30
2022-11-13T00:05:04.287Z,38.70
2022-11-13T00:05:14.395Z,38.50
2022-11-13T00:05:24.400Z,37.70
2022-11-13T00:05:34.547Z,40.40
2022-11-13T00:05:44.535Z,41.50
2022-11-13T00:05:54.566Z,40.90
2022-11-13T00:06:04.635Z,40.80
2022-11-13T00:06:14.733Z,38.00
2022-11-13T00:06:24.880Z,37.30
2022-11-13T00:06:34.952Z,34.80
2022-11-13T00:06:45.006Z,37.70
2022-11-13T00:06:59.154Z,36.50
2022-11-13T00:07:05.155Z,37.90
2022-11-13T00:07:15.169Z,37.80
2022-11-13T00:07:25.219Z,40.10
2022-11-13T00:07:35.285Z,42.20
2022-11-13T00:07:45.317Z,41.30
2022-11-13T00:07:55.434Z,41.60
2022-11-13T00:08:05.447Z,40.40
2022-11-13T00:08:15.492Z,40.20
2022-11-13T00:08:25.820Z,38.80
2022-11-13T00:08:35.616Z,36.70
2022-11-13T00:08:45.624Z,36.50
2022-11-13T00:08:55.759Z,36.80
2022-11-13T00:09:05.903Z,37.40
2022-11-13T00:09:16.035Z,38.20
2022-11-13T00:09:26.035Z,38.00
2022-11-13T00:09:36.184Z,40.10
2022-11-13T00:09:46.221Z,38.00
2022-11-13T00:09:56.195Z,37.00
2022-11-13T00:10:06.335Z,34.70
2022-11-13T00:10:16.341Z,35.40
2022-11-13T00:10:26.482Z,37.10
2022-11-13T00:10:36.489Z,38.90
2022-11-13T00:10:46.485Z,39.90
2022-11-13T00:10:56.524Z,37.00
2022-11-13T00:11:06.556Z,36.40
2022-11-13T00:11:16.744Z,37.80
2022-11-13T00:11:26.818Z,39.10
2022-11-13T00:11:36.816Z,39.00
2022-11-13T00:11:46.820Z,37.80
2022-11-13T00:11:56.965Z,36.60
2022-11-13T00:12:06.957Z,34.30
2022-11-13T00:12:16.930Z,35.40
2022-11-13T00:12:27.128Z,33.70
2022-11-13T00:12:37.056Z,36.80
2022-11-13T00:12:47.105Z,37.70
2022-11-13T00:12:57.145Z,39.50
2022-11-13T00:13:07.149Z,38.40
2022-11-13T00:13:17.299Z,36.50
2022-11-13T00:13:30.350Z,37.20
2022-11-13T00:13:37.263Z,36.60
2022-11-13T00:13:47.396Z,37.90
2022-11-13T00:13:57.586Z,37.60
2022-11-13T00:14:07.597Z,36.60
2022-11-13T00:14:17.733Z,36.50
2022-11-13T00:14:27.764Z,37.20
2022-11-13T00:14:37.952Z,37.70
2022-11-13T00:14:47.983Z,38.20
2022-11-13T00:14:58.024Z,38.50
2022-11-13T00:15:08.067Z,37.10
2022-11-13T00:15:18.114Z,36.70
2022-11-13T00:15:28.067Z,34.00
2022-11-13T00:15:38.065Z,34.90
2022-11-13T00:15:48.066Z,34.10
2022-11-13T00:15:58.129Z,36.00
2022-11-13T00:16:08.160Z,36.50
2022-11-13T00:16:18.154Z,35.10
2022-11-13T00:16:28.145Z,35.40
2022-11-13T00:16:38.165Z,36.10
2022-11-13T00:16:48.202Z,38.40
2022-11-13T00:16:58.178Z,37.50
2022-11-13T00:17:08.145Z,36.70
2022-11-13T00:17:18.296Z,38.80
2022-11-13T00:17:28.284Z,39.90
2022-11-13T00:17:38.298Z,41.00
2022-11-13T00:17:48.317Z,39.80
2022-11-13T00:17:58.364Z,39.50
2022-11-13T00:18:08.443Z,39.50
2022-11-13T00:18:18.427Z,39.50
2022-11-13T00:18:28.980Z,40.30
2022-11-13T00:18:38.736Z,43.80
2022-11-13T00:18:48.757Z,45.10
2022-11-13T00:18:58.735Z,44.90
2022-11-13T00:19:08.764Z,42.90
2022-11-13T00:19:18.783Z,42.30
2022-11-13T00:19:28.765Z,42.00
2022-11-13T00:19:38.925Z,40.10
2022-11-13T00:19:48.924Z,41.70
2022-11-13T00:19:59.077Z,43.50
2022-11-13T00:20:09.061Z,44.40
2022-11-13T00:20:19.075Z,40.60
2022-11-13T00:20:29.084Z,40.30
2022-11-13T00:20:39.248Z,39.50
2022-11-13T00:20:49.260Z,42.80
2022-11-13T00:20:59.253Z,42.80
2022-11-13T00:21:09.274Z,41.50
2022-11-13T00:21:19.255Z,42.60
2022-11-13T00:21:29.374Z,42.30
2022-11-13T00:21:39.402Z,43.20
2022-11-13T00:21:49.373Z,41.30
2022-11-13T00:21:59.514Z,40.10
2022-11-13T00:22:09.655Z,39.70
2022-11-13T00:22:19.692Z,38.50
2022-11-13T00:22:29.723Z,39.90
2022-11-13T00:22:39.724Z,39.60
2022-11-13T00:22:49.771Z,40.40
2022-11-13T00:22:59.823Z,40.00
2022-11-13T00:23:09.974Z,41.50
2022-11-13T00:23:20.012Z,40.80
2022-11-13T00:23:30.199Z,42.00
2022-11-13T00:23:40.214Z,42.00
2022-11-13T00:23:50.271Z,44.10
2022-11-13T00:24:00.264Z,42.60
2022-11-13T00:24:10.390Z,42.00
2022-11-13T00:24:20.421Z,40.60
2022-11-13T00:24:30.582Z,40.90
2022-11-13T00:24:40.542Z,40.80
2022-11-13T00:24:50.554Z,40.80
2022-11-13T00:25:00.738Z,38.50
2022-11-13T00:25:10.734Z,37.60
2022-11-13T00:25:20.718Z,38.50
2022-11-13T00:25:30.732Z,40.40
2022-11-13T00:25:40.751Z,41.00
2022-11-13T00:25:50.904Z,40.10
2022-11-13T00:26:00.893Z,40.60
2022-11-13T00:26:11.022Z,39.90
2022-11-13T00:26:21.013Z,38.30
2022-11-13T00:26:31.046Z,38.10
2022-11-13T00:26:41.034Z,39.60
2022-11-13T00:26:51.074Z,40.30
2022-11-13T00:27:01.093Z,39.00
2022-11-13T00:27:11.245Z,39.00
2022-11-13T00:27:21.244Z,41.20
2022-11-13T00:27:31.263Z,42.40
2022-11-13T00:27:41.233Z,41.50
2022-11-13T00:27:51.238Z,41.60
2022-11-13T00:28:01.268Z,40.40
2022-11-13T00:28:11.249Z,38.30
2022-11-13T00:28:21.204Z,35.50
2022-11-13T00:28:31.424Z,35.10
2022-11-13T00:28:41.291Z,36.70
2022-11-13T00:28:51.299Z,39.10
2022-11-13T00:29:01.330Z,38.90
2022-11-13T00:29:11.294Z,38.70
2022-11-13T00:29:21.287Z,36.90
2022-11-13T00:29:31.437Z,36.20
2022-11-13T00:29:41.634Z,38.90
2022-11-13T00:29:51.666Z,39.30
2022-11-13T00:30:01.695Z,40.10
2022-11-13T00:30:16.361Z,39.40
2022-11-13T00:30:22.703Z,39.70
2022-11-13T00:30:32.682Z,40.60
2022-11-13T00:30:42.831Z,38.70
2022-11-13T00:30:52.853Z,37.10
2022-11-13T00:31:02.913Z,37.00
2022-11-13T00:31:13.022Z,36.00
2022-11-13T00:31:23.012Z,37.50
2022-11-13T00:31:33.011Z,37.50
2022-11-13T00:31:43.031Z,38.70
2022-11-13T00:31:53.072Z,38.30
2022-11-13T00:32:03.115Z,37.20
2022-11-13T00:32:13.095Z,37.00
2022-11-13T00:32:23.254Z,38.60
2022-11-13T00:32:33.225Z,38.20
2022-11-13T00:32:43.294Z,37.50
2022-11-13T00:32:53.379Z,36.20
2022-11-13T00:33:03.376Z,36.50
2022-11-13T00:33:16.320Z,35.10
2022-11-13T00:33:45.509Z,32.40
2022-11-13T00:34:09.192Z,36.80
2022-11-13T00:34:45.722Z,34.10
2022-11-13T00:34:47.543Z,35.90
2022-11-13T00:34:52.102Z,37.40
2022-11-13T00:35:02.104Z,39.60
2022-11-13T00:35:12.162Z,37.90
2022-11-13T00:35:22.184Z,36.00
2022-11-13T00:35:32.225Z,36.00
2022-11-13T00:35:42.292Z,37.80
2022-11-13T00:35:52.411Z,38.60
2022-11-13T00:36:02.382Z,38.50
2022-11-13T00:36:12.421Z,38.40
2022-11-13T00:36:25.942Z,37.20
2022-11-13T00:36:32.516Z,37.10
2022-11-13T00:36:42.545Z,35.10
2022-11-13T00:36:52.512Z,38.10
2022-11-13T00:37:02.502Z,37.10
2022-11-13T00:37:12.522Z,36.80
2022-11-13T00:37:22.689Z,34.40
2022-11-13T00:37:32.714Z,36.70
2022-11-13T00:37:42.763Z,37.80
2022-11-13T00:37:52.743Z,38.90
2022-11-13T00:38:02.745Z,39.30
2022-11-13T00:38:12.763Z,37.90
2022-11-13T00:38:22.792Z,38.30
2022-11-13T00:38:32.812Z,37.50
2022-11-13T00:38:42.920Z,37.20
2022-11-13T00:38:52.995Z,37.30
2022-11-13T00:39:03.052Z,37.20
2022-11-13T00:39:13.053Z,36.30
2022-11-13T00:39:23.060Z,33.60
2022-11-13T00:39:33.235Z,30.60
2022-11-13T00:39:43.173Z,31.60
2022-11-13T00:39:58.440Z,33.10
2022-11-13T00:40:04.152Z,33.00
2022-11-13T00:40:14.184Z,34.80
2022-11-13T00:40:24.171Z,33.60
2022-11-13T00:40:34.222Z,35.80
2022-11-13T00:40:44.381Z,34.70
2022-11-13T00:40:54.392Z,38.60
2022-11-13T00:41:04.509Z,37.30
2022-11-13T00:41:14.463Z,38.40
2022-11-13T00:41:24.617Z,37.40
2022-11-13T00:41:34.594Z,36.70
2022-11-13T00:41:44.677Z,34.80
2022-11-13T00:41:54.681Z,34.50
2022-11-13T00:42:04.723Z,35.70
2022-11-13T00:42:14.688Z,36.40
2022-11-13T00:42:24.831Z,35.30
2022-11-13T00:42:34.960Z,32.60
2022-11-13T00:42:44.983Z,34.70
2022-11-13T00:42:54.956Z,34.20
2022-11-13T00:43:04.984Z,35.50
2022-11-13T00:43:14.961Z,34.10
2022-11-13T00:43:25.123Z,35.40
2022-11-13T00:43:35.153Z,37.10
2022-11-13T00:43:45.228Z,36.00
2022-11-13T00:43:55.230Z,36.00
2022-11-13T00:44:05.183Z,34.90
2022-11-13T00:44:15.318Z,36.60
2022-11-13T00:44:25.465Z,36.70
2022-11-13T00:44:35.463Z,35.40
2022-11-13T00:44:45.647Z,35.00
2022-11-13T00:44:55.632Z,32.10
2022-11-13T00:45:05.764Z,32.80
2022-11-13T00:45:15.933Z,32.50
2022-11-13T00:45:25.951Z,35.00
2022-11-13T00:45:35.941Z,36.50
2022-11-13T00:45:45.932Z,36.10
2022-11-13T00:45:55.960Z,34.00
2022-11-13T00:46:05.932Z,31.60
2022-11-13T00:46:16.101Z,31.70
2022-11-13T00:46:26.140Z,35.30
2022-11-13T00:46:36.318Z,36.30
2022-11-13T00:46:46.391Z,35.90
2022-11-13T00:46:56.338Z,33.30
2022-11-13T00:47:06.331Z,33.50
2022-11-13T00:47:16.482Z,32.80
2022-11-13T00:47:26.629Z,32.20
2022-11-13T00:47:36.776Z,31.80
2022-11-13T00:47:46.779Z,33.60
2022-11-13T00:47:56.761Z,32.10
2022-11-13T00:48:06.893Z,33.50
2022-11-13T00:48:16.958Z,33.00
2022-11-13T00:48:27.214Z,35.00
2022-11-13T00:48:37.075Z,33.80
2022-11-13T00:48:47.046Z,34.50
2022-11-13T00:48:57.095Z,36.20
2022-11-13T00:49:07.161Z,36.60
2022-11-13T00:49:17.344Z,33.20
2022-11-13T00:49:27.371Z,31.50
2022-11-13T00:49:37.461Z,33.40
2022-11-13T00:49:47.449Z,37.70
2022-11-13T00:49:57.432Z,39.20
2022-11-13T00:50:07.413Z,37.50
2022-11-13T00:50:17.642Z,35.60
2022-11-13T00:50:27.674Z,35.60
2022-11-13T00:50:37.629Z,34.90
2022-11-13T00:50:47.610Z,32.00
2022-11-13T00:50:57.627Z,29.90
2022-11-13T00:51:07.784Z,30.80
2022-11-13T00:51:17.756Z,31.30
2022-11-13T00:51:27.739Z,32.40
2022-11-13T00:51:37.729Z,31.30
2022-11-13T00:51:47.745Z,32.90
2022-11-13T00:51:57.784Z,32.50
2022-11-13T00:52:07.794Z,32.80
2022-11-13T00:52:17.793Z,33.40
2022-11-13T00:52:27.790Z,33.40
2022-11-13T00:52:37.942Z,32.30
2022-11-13T00:52:47.951Z,29.70
2022-11-13T00:52:58.005Z,29.30
2022-11-13T00:53:08.082Z,31.50
2022-11-13T00:53:18.445Z,32.70
2022-11-13T00:53:28.210Z,33.20
2022-11-13T00:53:38.251Z,33.00
2022-11-13T00:53:48.409Z,33.40
2022-11-13T00:53:58.422Z,33.40
2022-11-13T00:54:08.441Z,35.40
2022-11-13T00:54:18.442Z,35.10
2022-11-13T00:54:28.561Z,35.90
2022-11-13T00:54:38.600Z,34.20
2022-11-13T00:54:48.720Z,33.10
2022-11-13T00:54:58.820Z,31.20
2022-11-13T00:55:08.787Z,30.30
2022-11-13T00:55:18.937Z,32.90
2022-11-13T00:55:28.968Z,34.60
2022-11-13T00:55:38.981Z,36.30
2022-11-13T00:55:49.068Z,35.40
2022-11-13T00:55:59.075Z,33.70
2022-11-13T00:56:09.234Z,32.00
2022-11-13T00:56:19.349Z,32.40
2022-11-13T00:56:29.340Z,32.00
2022-11-13T00:56:39.396Z,32.10
2022-11-13T00:56:49.412Z,31.30
2022-11-13T00:56:59.381Z,31.80
2022-11-13T00:57:09.370Z,31.80
2022-11-13T00:57:19.408Z,30.70
2022-11-13T00:57:29.583Z,31.60
2022-11-13T00:57:39.556Z,30.00
2022-11-13T00:57:49.600Z,32.00
2022-11-13T00:57:59.599Z,30.70
2022-11-13T00:58:09.650Z,32.70
2022-11-13T00:58:19.809Z,32.50
2022-11-13T00:58:30.202Z,33.10
2022-11-13T00:58:39.924Z,34.30
2022-11-13T00:58:49.920Z,35.60
2022-11-13T00:58:59.936Z,36.30
2022-11-13T00:59:10.059Z,34.20
2022-11-13T00:59:20.141Z,30.90
2022-11-13T00:59:30.259Z,29.30
2022-11-13T00:59:40.292Z,28.90
2022-11-13T00:59:50.301Z,29.40
2022-11-13T01:00:00.272Z,29.10
2022-11-13T01:00:10.264Z,29.10
2022-11-13T01:00:20.397Z,31.10
2022-11-13T01:00:30.440Z,30.80
2022-11-13T01:00:40.418Z,30.70
2022-11-13T01:00:50.410Z,28.60
2022-11-13T01:01:00.422Z,30.50
2022-11-13T01:01:10.539Z,31.50
2022-11-13T01:01:20.629Z,32.60
2022-11-13T01:01:30.678Z,33.90
2022-11-13T01:01:40.700Z,34.00
2022-11-13T01:01:50.737Z,34.80
2022-11-13T01:02:00.779Z,33.60
2022-11-13T01:02:10.839Z,35.10
2022-11-13T01:02:20.848Z,33.60
2022-11-13T01:02:30.829Z,34.10
2022-11-13T01:02:40.810Z,34.00
2022-11-13T01:02:50.844Z,32.90
2022-11-13T01:03:00.852Z,32.50
2022-11-13T01:03:10.986Z,30.30
2022-11-13T01:03:21.009Z,31.20
2022-11-13T01:03:30.999Z,30.90
2022-11-13T01:03:41.129Z,33.30
2022-11-13T01:03:51.160Z,34.20
2022-11-13T01:04:01.214Z,34.70
2022-11-13T01:04:11.366Z,34.70
2022-11-13T01:04:21.348Z,34.40
2022-11-13T01:04:31.368Z,32.70
2022-11-13T01:04:41.520Z,33.00
2022-11-13T01:04:51.591Z,33.30
2022-11-13T01:05:01.532Z,33.70
2022-11-13T01:05:11.528Z,29.80
2022-11-13T01:05:21.642Z,28.90
2022-11-13T01:05:31.698Z,29.10
2022-11-13T01:05:41.897Z,30.20
2022-11-13T01:05:51.899Z,29.60
2022-11-13T01:06:01.872Z,30.40
2022-11-13T01:06:12.031Z,29.20
2022-11-13T01:06:22.165Z,30.20
2022-11-13T01:06:32.179Z,29.30
2022-11-13T01:06:42.257Z,30.80
2022-11-13T01:06:52.325Z,30.90
2022-11-13T01:07:02.367Z,33.10
2022-11-13T01:07:12.435Z,33.60
2022-11-13T01:07:22.512Z,35.90
2022-11-13T01:07:32.521Z,35.00
2022-11-13T01:07:42.524Z,33.40
2022-11-13T01:07:52.671Z,30.10
2022-11-13T01:08:02.686Z,29.30
2022-11-13T01:08:12.649Z,30.20
2022-11-13T01:08:22.691Z,31.10
2022-11-13T01:08:32.729Z,32.40
2022-11-13T01:08:42.828Z,34.20
2022-11-13T01:08:52.810Z,34.80
2022-11-13T01:09:02.818Z,36.10
2022-11-13T01:09:12.972Z,33.30
2022-11-13T01:09:23.047Z,30.90
2022-11-13T01:09:33.087Z,28.20
2022-11-13T01:09:43.277Z,30.70
2022-11-13T01:09:53.276Z,31.70
2022-11-13T01:10:03.410Z,32.30
2022-11-13T01:10:13.530Z,30.80
2022-11-13T01:10:23.529Z,30.80
2022-11-13T01:10:33.736Z,32.20
2022-11-13T01:10:44.833Z,31.80
2022-11-13T01:10:54.116Z,32.20
2022-11-13T01:11:03.899Z,29.40
2022-11-13T01:11:14.048Z,32.10
2022-11-13T01:11:24.073Z,32.90
2022-11-13T01:11:34.089Z,35.50
2022-11-13T01:11:44.287Z,34.20
2022-11-13T01:11:54.341Z,33.80
2022-11-13T01:12:04.317Z,32.00
2022-11-13T01:12:14.287Z,33.10
2022-11-13T01:12:24.299Z,32.40
2022-11-13T01:12:34.467Z,32.80
2022-11-13T01:12:44.486Z,30.00
2022-11-13T01:12:54.627Z,31.10
2022-11-13T01:13:04.627Z,29.70
2022-11-13T01:13:14.619Z,34.40
2022-11-13T01:13:24.743Z,33.80
2022-11-13T01:13:34.802Z,33.70
2022-11-13T01:13:44.937Z,29.30
2022-11-13T01:13:54.958Z,28.10
2022-11-13T01:14:04.947Z,29.30
2022-11-13T01:14:14.938Z,31.70
2022-11-13T01:14:24.998Z,33.60
2022-11-13T01:14:35.025Z,31.90
2022-11-13T01:14:45.183Z,29.20
2022-11-13T01:14:55.147Z,28.90
2022-11-13T01:15:05.169Z,28.50
2022-11-13T01:15:15.219Z,30.30
2022-11-13T01:15:25.262Z,29.90
2022-11-13T01:15:35.291Z,29.90
2022-11-13T01:15:45.428Z,28.50
2022-11-13T01:15:55.398Z,28.70
2022-11-13T01:16:05.381Z,29.60
2022-11-13T01:16:15.400Z,30.80
2022-11-13T01:16:25.371Z,31.50
2022-11-13T01:16:35.357Z,30.90
2022-11-13T01:16:45.488Z,30.40
2022-11-13T01:16:55.468Z,30.30
2022-11-13T01:17:05.532Z,30.60
2022-11-13T01:17:15.565Z,32.30
2022-11-13T01:17:25.529Z,33.20
2022-11-13T01:17:35.549Z,34.10
2022-11-13T01:17:45.600Z,33.10
2022-11-13T01:17:55.639Z,31.10
2022-11-13T01:18:05.668Z,31.00
2022-11-13T01:18:15.732Z,30.60
2022-11-13T01:18:26.003Z,32.10
2022-11-13T01:18:35.768Z,32.80
2022-11-13T01:18:45.796Z,32.60
2022-11-13T01:18:55.871Z,32.30
2022-11-13T01:19:05.901Z,30.10
2022-11-13T01:19:15.938Z,30.40
2022-11-13T01:19:25.977Z,30.70
2022-11-13T01:19:35.971Z,32.60
2022-11-13T01:19:45.967Z,33.30
2022-11-13T01:19:56.066Z,33.60
2022-11-13T01:20:06.078Z,32.80
2022-11-13T01:20:16.109Z,33.90
2022-11-13T01:20:26.240Z,33.40
2022-11-13T01:20:36.220Z,33.10
2022-11-13T01:20:46.260Z,33.10
2022-11-13T01:20:56.277Z,34.10
2022-11-13T01:21:06.482Z,36.20
2022-11-13T01:21:16.519Z,33.90
2022-11-13T01:21:26.588Z,32.10
2022-11-13T01:21:36.637Z,29.30
2022-11-13T01:21:46.768Z,29.00
2022-11-13T01:21:56.807Z,28.50
2022-11-13T01:22:06.811Z,34.10
2022-11-13T01:22:16.953Z,33.00
2022-11-13T01:22:26.828Z,34.10
2022-11-13T01:22:36.947Z,28.50
2022-11-13T01:22:47.079Z,29.10
2022-11-13T01:22:57.146Z,28.50
2022-11-13T01:23:07.143Z,29.40
2022-11-13T01:23:17.349Z,31.80
2022-11-13T01:23:27.399Z,31.30
2022-11-13T01:23:37.407Z,31.30
2022-11-13T01:23:47.406Z,28.10
2022-11-13T01:23:57.651Z,29.40
2022-11-13T01:24:07.648Z,28.90
2022-11-13T01:24:17.610Z,30.40
2022-11-13T01:24:27.630Z,33.20
2022-11-13T01:24:37.650Z,34.10
2022-11-13T01:24:47.824Z,31.90
2022-11-13T01:24:57.869Z,30.60
2022-11-13T01:25:07.848Z,30.90
2022-11-13T01:25:17.854Z,30.90
2022-11-13T01:25:27.856Z,30.10
2022-11-13T01:25:37.908Z,28.70
2022-11-13T01:25:47.939Z,28.60
2022-11-13T01:25:57.916Z,28.60
2022-11-13T01:26:07.950Z,29.20
2022-11-13T01:26:18.077Z,32.00
2022-11-13T01:26:28.216Z,30.70
2022-11-13T01:26:38.268Z,31.80
2022-11-13T01:26:48.307Z,28.50
2022-11-13T01:26:58.352Z,28.40
2022-11-13T01:27:08.414Z,27.40
2022-11-13T01:27:18.394Z,27.80
2022-11-13T01:27:28.527Z,29.00
2022-11-13T01:27:38.587Z,28.40
2022-11-13T01:27:48.608Z,28.00
2022-11-13T01:27:58.715Z,28.80
2022-11-13T01:28:08.706Z,29.50
2022-11-13T01:28:18.676Z,31.80
2022-11-13T01:28:29.144Z,32.00
2022-11-13T01:28:38.999Z,31.20
2022-11-13T01:28:49.065Z,29.10
2022-11-13T01:28:59.076Z,30.80
2022-11-13T01:29:09.047Z,33.10
2022-11-13T01:29:19.196Z,36.20
2022-11-13T01:29:29.176Z,33.50
2022-11-13T01:29:39.356Z,32.20
2022-11-13T01:29:49.388Z,29.60
2022-11-13T01:29:59.370Z,29.20
2022-11-13T01:30:09.487Z,27.70
2022-11-13T01:30:19.637Z,27.30
2022-11-13T01:30:29.628Z,26.30
2022-11-13T01:30:39.790Z,28.20
2022-11-13T01:30:49.834Z,28.30
2022-11-13T01:30:59.847Z,30.20
2022-11-13T01:31:09.975Z,31.00
2022-11-13T01:31:19.953Z,31.30
2022-11-13T01:31:30.021Z,31.20
2022-11-13T01:31:40.028Z,32.00
2022-11-13T01:31:50.028Z,33.40
2022-11-13T01:32:00.029Z,32.90
2022-11-13T01:32:10.194Z,32.20
2022-11-13T01:32:20.186Z,29.10
2022-11-13T01:32:30.166Z,30.30
2022-11-13T01:32:40.687Z,30.20
2022-11-13T01:32:50.286Z,31.00
2022-11-13T01:33:00.490Z,29.90
2022-11-13T01:33:10.526Z,28.80
2022-11-13T01:33:20.526Z,28.50
2022-11-13T01:33:30.710Z,27.70
2022-11-13T01:33:40.762Z,27.30
2022-11-13T01:33:50.777Z,26.40
2022-11-13T01:34:00.927Z,28.00
2022-11-13T01:34:10.929Z,28.00
2022-11-13T01:34:20.961Z,28.60
2022-11-13T01:34:31.018Z,30.80
2022-11-13T01:34:41.050Z,31.70
2022-11-13T01:34:51.212Z,32.40
2022-11-13T01:35:01.332Z,31.80
2022-11-13T01:35:11.349Z,31.20
2022-11-13T01:35:21.506Z,31.00
2022-11-13T01:35:31.460Z,27.80
2022-11-13T01:35:41.533Z,26.20
2022-11-13T01:35:51.539Z,27.80
2022-11-13T01:36:01.527Z,29.20
2022-11-13T01:36:11.519Z,29.30
2022-11-13T01:36:21.527Z,30.20
2022-11-13T01:36:31.536Z,30.80
2022-11-13T01:36:41.545Z,32.50
2022-11-13T01:36:51.586Z,31.10
2022-11-13T01:37:01.627Z,30.00
2022-11-13T01:37:11.651Z,29.10
2022-11-13T01:37:21.642Z,31.20
2022-11-13T01:37:31.577Z,29.40
2022-11-13T01:37:41.577Z,29.40
2022-11-13T01:37:51.586Z,27.10
2022-11-13T01:38:01.776Z,31.00
2022-11-13T01:38:11.816Z,30.40
2022-11-13T01:38:21.786Z,31.40
2022-11-13T01:38:36.015Z,29.20
2022-11-13T01:38:42.089Z,29.00
2022-11-13T01:38:52.187Z,28.40
2022-11-13T01:39:02.272Z,28.80
2022-11-13T01:39:12.419Z,29.50
2022-11-13T01:39:22.557Z,28.90
2022-11-13T01:39:32.644Z,27.80
2022-11-13T01:39:42.635Z,26.40
2022-11-13T01:39:52.638Z,27.00
2022-11-13T01:40:02.744Z,27.40
2022-11-13T01:40:12.845Z,28.30
2022-11-13T01:40:22.802Z,28.30
2022-11-13T01:40:32.886Z,28.50
2022-11-13T01:40:42.996Z,27.50
2022-11-13T01:40:53.167Z,28.10
2022-11-13T01:41:03.208Z,28.90
2022-11-13T01:41:13.327Z,29.40
2022-11-13T01:41:23.977Z,27.90
2022-11-13T01:41:33.495Z,27.00
2022-11-13T01:41:43.598Z,26.90
2022-11-13T01:41:53.726Z,28.50
2022-11-13T01:42:03.865Z,29.80
2022-11-13T01:42:13.877Z,31.60
2022-11-13T01:42:23.865Z,28.90
2022-11-13T01:42:33.949Z,28.10
2022-11-13T01:42:44.097Z,27.50
2022-11-13T01:42:54.245Z,28.40
2022-11-13T01:43:04.312Z,30.50
2022-11-13T01:43:14.450Z,29.60
2022-11-13T01:43:24.447Z,31.10
2022-11-13T01:43:34.405Z,30.80
2022-11-13T01:43:44.446Z,30.70
2022-11-13T01:43:54.428Z,28.90
2022-11-13T01:44:04.489Z,26.50
2022-11-13T01:44:14.479Z,26.40
2022-11-13T01:44:24.466Z,27.00
2022-11-13T01:44:34.455Z,26.10
2022-11-13T01:44:44.581Z,26.10
2022-11-13T01:44:54.809Z,26.10
2022-11-13T01:45:04.825Z,27.50
2022-11-13T01:45:14.835Z,26.20
2022-11-13T01:45:24.975Z,27.10
2022-11-13T01:45:34.963Z,27.70
2022-11-13T01:45:44.966Z,27.70
2022-11-13T01:45:55.106Z,27.10
2022-11-13T01:46:05.111Z,26.60
2022-11-13T01:46:15.257Z,27.80
2022-11-13T01:46:25.407Z,26.50
2022-11-13T01:46:35.406Z,27.50
2022-11-13T01:46:45.559Z,26.70
2022-11-13T01:46:55.709Z,28.90
2022-11-13T01:47:05.838Z,28.00
2022-11-13T01:47:15.852Z,28.20
2022-11-13T01:47:25.955Z,26.30
2022-11-13T01:47:36.074Z,26.50
2022-11-13T01:47:46.045Z,28.10
2022-11-13T01:47:56.054Z,27.70
2022-11-13T01:48:06.067Z,27.70
2022-11-13T01:48:16.062Z,25.50
2022-11-13T01:48:26.386Z,28.50
2022-11-13T01:48:36.187Z,28.50
2022-11-13T01:48:46.234Z,28.30
2022-11-13T01:48:56.378Z,28.10
2022-11-13T01:49:06.417Z,28.40
2022-11-13T01:49:16.416Z,29.40
2022-11-13T01:49:26.454Z,28.10
2022-11-13T01:49:36.485Z,27.80
2022-11-13T01:49:46.505Z,26.90
2022-11-13T01:49:56.536Z,28.30
2022-11-13T01:50:06.484Z,30.50
2022-11-13T01:50:16.482Z,30.00
2022-11-13T01:50:26.625Z,27.80
2022-11-13T01:50:36.777Z,28.00
2022-11-13T01:50:46.828Z,29.50
2022-11-13T01:50:56.864Z,29.60
2022-11-13T01:51:06.875Z,27.30
2022-11-13T01:51:16.873Z,26.80
2022-11-13T01:51:26.865Z,27.70
2022-11-13T01:51:37.005Z,29.60
2022-11-13T01:51:47.029Z,29.00
2022-11-13T01:51:57.018Z,30.50
2022-11-13T01:52:07.203Z,28.90
2022-11-13T01:52:17.195Z,28.50
2022-11-13T01:52:27.263Z,28.10
2022-11-13T01:52:37.224Z,29.80
2022-11-13T01:52:47.396Z,31.60
2022-11-13T01:52:57.364Z,30.10
2022-11-13T01:53:07.394Z,31.30
2022-11-13T01:53:17.426Z,29.40
2022-11-13T01:53:27.439Z,29.20
2022-11-13T01:53:37.495Z,27.40
2022-11-13T01:53:47.464Z,28.60
2022-11-13T01:53:57.422Z,27.80
2022-11-13T01:54:07.439Z,27.50
2022-11-13T01:54:17.472Z,26.40
2022-11-13T01:54:27.475Z,26.30
2022-11-13T01:54:37.473Z,28.40
2022-11-13T01:54:47.575Z,27.90
2022-11-13T01:54:57.746Z,30.00
2022-11-13T01:55:07.899Z,28.40
2022-11-13T01:55:17.869Z,28.20
2022-11-13T01:55:27.906Z,25.50
2022-11-13T01:55:37.885Z,25.50
2022-11-13T01:55:48.047Z,27.20
2022-11-13T01:55:58.066Z,28.00
2022-11-13T01:56:08.210Z,27.90
2022-11-13T01:56:18.313Z,27.00
2022-11-13T01:56:28.282Z,27.90
2022-11-13T01:56:38.313Z,28.00
2022-11-13T01:56:48.334Z,28.10
2022-11-13T01:56:58.336Z,27.60
2022-11-13T01:57:08.476Z,28.20
2022-11-13T01:57:18.466Z,28.90
2022-11-13T01:57:28.456Z,29.40
2022-11-13T01:57:38.456Z,28.80
2022-11-13T01:57:48.486Z,28.20
2022-11-13T01:57:58.578Z,26.90
2022-11-13T01:58:08.714Z,27.70
2022-11-13T01:58:18.753Z,27.40
2022-11-13T01:58:29.247Z,27.60
2022-11-13T01:58:38.848Z,26.60
2022-11-13T01:58:48.857Z,27.30
2022-11-13T01:58:58.914Z,26.50
2022-11-13T01:59:08.914Z,27.50
2022-11-13T01:59:18.892Z,28.10
2022-11-13T01:59:29.015Z,28.60
2022-11-13T01:59:38.993Z,27.40
2022-11-13T01:59:48.994Z,26.60
2022-11-13T01:59:59.143Z,26.50
2022-11-13T02:00:09.141Z,29.90
2022-11-13T02:00:19.204Z,29.40
2022-11-13T02:00:29.236Z,29.10
2022-11-13T02:00:39.313Z,26.90
2022-11-13T02:00:49.392Z,28.50
2022-11-13T02:00:59.434Z,30.90
2022-11-13T02:01:09.396Z,30.60
2022-11-13T02:01:19.412Z,28.40
2022-11-13T02:01:29.442Z,27.50
2022-11-13T02:01:39.519Z,25.60
2022-11-13T02:01:49.543Z,27.50
2022-11-13T02:01:59.710Z,27.70
2022-11-13T02:02:09.776Z,28.20
2022-11-13T02:02:19.818Z,27.40
2022-11-13T02:02:29.965Z,27.00
2022-11-13T02:02:39.934Z,29.90
2022-11-13T02:02:49.927Z,31.90
2022-11-13T02:02:59.914Z,30.60
2022-11-13T02:03:10.073Z,27.80
2022-11-13T02:03:20.084Z,25.30
2022-11-13T02:03:30.120Z,24.90
2022-11-13T02:03:40.298Z,26.10
2022-11-13T02:03:50.312Z,28.40
2022-11-13T02:04:00.293Z,30.40
2022-11-13T02:04:10.285Z,27.80
2022-11-13T02:04:20.311Z,28.80
2022-11-13T02:04:30.477Z,28.20
2022-11-13T02:04:40.446Z,30.80
2022-11-13T02:04:50.530Z,28.50
2022-11-13T02:05:00.672Z,26.80
2022-11-13T02:05:10.835Z,26.80
2022-11-13T02:05:20.879Z,27.30
2022-11-13T02:05:30.862Z,28.90
2022-11-13T02:05:40.954Z,28.50
2022-11-13T02:05:50.953Z,29.10
2022-11-13T02:06:00.968Z,28.50
2022-11-13T02:06:11.042Z,27.90
2022-11-13T02:06:21.034Z,27.10
2022-11-13T02:06:31.077Z,28.00
2022-11-13T02:06:41.146Z,28.40
2022-11-13T02:06:51.171Z,28.60
2022-11-13T02:07:01.244Z,28.50
2022-11-13T02:07:11.335Z,28.30
2022-11-13T02:07:21.399Z,29.10
2022-11-13T02:07:31.423Z,27.60
2022-11-13T02:07:41.461Z,27.50
2022-11-13T02:07:51.481Z,26.50
2022-11-13T02:08:01.698Z,28.20
2022-11-13T02:08:11.694Z,27.60
2022-11-13T02:08:21.852Z,29.80
2022-11-13T02:08:31.814Z,28.60
2022-11-13T02:08:41.822Z,30.50
2022-11-13T02:08:51.899Z,27.80
2022-11-13T02:09:01.924Z,28.80
2022-11-13T02:09:11.933Z,27.30
2022-11-13T02:09:21.902Z,27.90
2022-11-13T02:09:32.034Z,28.10
2022-11-13T02:09:42.052Z,28.40
2022-11-13T02:09:52.064Z,28.40
2022-11-13T02:10:02.065Z,26.80
2022-11-13T02:10:12.065Z,29.20